sensor_id;sensor_type;location;lat;lon;timestamp;pressure;altitude;pressure_sealevel;temperature;humidity
51297;BME280;37380;45.186;9.792;2023-12-28T00:02:19;102343.84;;;7.97;87.67
51297;BME280;37380;45.186;9.792;2023-12-28T00:04:46;102351.81;;;7.95;87.96
51297;BME280;37380;45.186;9.792;2023-12-28T00:07:13;102357.03;;;7.93;87.75
51297;BME280;37380;45.186;9.792;2023-12-28T00:09:40;102350.16;;;7.98;87.66
51297;BME280;37380;45.186;9.792;2023-12-28T00:12:07;102357.25;;;7.99;87.91
51297;BME280;37380;45.186;9.792;2023-12-28T00:14:34;102360.50;;;7.97;87.92
51297;BME280;37380;45.186;9.792;2023-12-28T00:17:01;102345.53;;;7.95;87.77
51297;BME280;37380;45.186;9.792;2023-12-28T00:19:28;102337.16;;;8.07;88.10
51297;BME280;37380;45.186;9.792;2023-12-28T00:21:55;102339.28;;;8.03;87.54
51297;BME280;37380;45.186;9.792;2023-12-28T00:24:23;102351.72;;;7.99;87.76
51297;BME280;37380;45.186;9.792;2023-12-28T00:26:49;102341.84;;;7.98;88.17
51297;BME280;37380;45.186;9.792;2023-12-28T00:29:16;102341.41;;;7.99;87.56
51297;BME280;37380;45.186;9.792;2023-12-28T00:31:43;102348.63;;;7.97;87.87
51297;BME280;37380;45.186;9.792;2023-12-28T00:34:10;102348.63;;;7.97;87.89
51297;BME280;37380;45.186;9.792;2023-12-28T00:36:38;102355.06;;;7.94;88.37
51297;BME280;37380;45.186;9.792;2023-12-28T00:39:05;102349.50;;;7.94;88.13
51297;BME280;37380;45.186;9.792;2023-12-28T00:41:32;102348.53;;;7.88;88.28
51297;BME280;37380;45.186;9.792;2023-12-28T00:43:59;102354.38;;;7.90;88.37
51297;BME280;37380;45.186;9.792;2023-12-28T00:46:28;102355.94;;;7.91;88.22
51297;BME280;37380;45.186;9.792;2023-12-28T00:48:55;102356.25;;;7.93;88.21
51297;BME280;37380;45.186;9.792;2023-12-28T00:51:22;102350.84;;;7.77;88.74
51297;BME280;37380;45.186;9.792;2023-12-28T00:53:49;102358.72;;;7.66;89.26
51297;BME280;37380;45.186;9.792;2023-12-28T00:56:17;102355.72;;;7.73;89.53
51297;BME280;37380;45.186;9.792;2023-12-28T00:58:44;102346.53;;;7.76;89.75
51297;BME280;37380;45.186;9.792;2023-12-28T01:01:11;102350.41;;;7.78;89.87
51297;BME280;37380;45.186;9.792;2023-12-28T01:03:39;102353.94;;;7.79;89.36
51297;BME280;37380;45.186;9.792;2023-12-28T01:06:06;102356.72;;;7.79;89.50
51297;BME280;37380;45.186;9.792;2023-12-28T01:08:35;102344.72;;;7.82;89.43
51297;BME280;37380;45.186;9.792;2023-12-28T01:11:02;102359.16;;;7.77;89.62
51297;BME280;37380;45.186;9.792;2023-12-28T01:13:30;102355.03;;;7.81;89.04
51297;BME280;37380;45.186;9.792;2023-12-28T01:15:58;102348.94;;;7.86;89.42
51297;BME280;37380;45.186;9.792;2023-12-28T01:18:25;102343.53;;;7.83;88.91
51297;BME280;37380;45.186;9.792;2023-12-28T01:20:53;102347.41;;;7.85;89.07
51297;BME280;37380;45.186;9.792;2023-12-28T01:23:20;102352.97;;;7.85;88.80
51297;BME280;37380;45.186;9.792;2023-12-28T01:25:47;102350.41;;;7.78;89.05
51297;BME280;37380;45.186;9.792;2023-12-28T01:28:14;102340.06;;;7.79;89.44
51297;BME280;37380;45.186;9.792;2023-12-28T01:30:41;102337.19;;;7.95;88.73
51297;BME280;37380;45.186;9.792;2023-12-28T01:33:11;102340.94;;;7.88;88.69
51297;BME280;37380;45.186;9.792;2023-12-28T01:35:38;102335.84;;;7.87;88.67
51297;BME280;37380;45.186;9.792;2023-12-28T01:38:07;102345.38;;;7.86;88.73
51297;BME280;37380;45.186;9.792;2023-12-28T01:40:35;102345.38;;;7.86;88.88
51297;BME280;37380;45.186;9.792;2023-12-28T01:43:02;102341.19;;;7.81;88.82
51297;BME280;37380;45.186;9.792;2023-12-28T01:45:29;102341.97;;;7.82;88.54
51297;BME280;37380;45.186;9.792;2023-12-28T01:47:59;102338.84;;;7.80;88.62
51297;BME280;37380;45.186;9.792;2023-12-28T01:50:27;102347.06;;;7.96;88.71
51297;BME280;37380;45.186;9.792;2023-12-28T01:52:56;102329.09;;;7.88;88.36
51297;BME280;37380;45.186;9.792;2023-12-28T01:55:26;102340.44;;;7.81;88.42
51297;BME280;37380;45.186;9.792;2023-12-28T01:57:54;102342.19;;;7.75;88.76
51297;BME280;37380;45.186;9.792;2023-12-28T02:00:22;102332.66;;;7.76;89.44
51297;BME280;37380;45.186;9.792;2023-12-28T02:02:51;102341.31;;;7.78;89.95
51297;BME280;37380;45.186;9.792;2023-12-28T02:05:18;102336.31;;;7.73;88.94
51297;BME280;37380;45.186;9.792;2023-12-28T02:07:46;102334.19;;;7.77;89.02
51297;BME280;37380;45.186;9.792;2023-12-28T02:10:13;102326.66;;;7.77;89.07
51297;BME280;37380;45.186;9.792;2023-12-28T02:12:40;102327.78;;;7.80;88.92
51297;BME280;37380;45.186;9.792;2023-12-28T02:15:08;102337.19;;;7.82;89.15
51297;BME280;37380;45.186;9.792;2023-12-28T02:18:01;102326.88;;;7.83;88.80
51297;BME280;37380;45.186;9.792;2023-12-28T02:20:30;102318.91;;;7.85;89.08
51297;BME280;37380;45.186;9.792;2023-12-28T02:22:58;102328.00;;;7.85;89.31
51297;BME280;37380;45.186;9.792;2023-12-28T02:25:25;102322.88;;;7.84;89.12
51297;BME280;37380;45.186;9.792;2023-12-28T02:27:52;102318.00;;;7.88;88.73
51297;BME280;37380;45.186;9.792;2023-12-28T02:30:23;102310.25;;;7.83;88.60
51297;BME280;37380;45.186;9.792;2023-12-28T02:35:48;102318.13;;;7.84;89.34
51297;BME280;37380;45.186;9.792;2023-12-28T02:38:19;102319.91;;;7.78;88.86
51297;BME280;37380;45.186;9.792;2023-12-28T02:40:48;102315.78;;;7.83;88.99
51297;BME280;37380;45.186;9.792;2023-12-28T02:43:16;102315.00;;;7.82;89.09
51297;BME280;37380;45.186;9.792;2023-12-28T02:45:43;102325.22;;;7.85;89.20
51297;BME280;37380;45.186;9.792;2023-12-28T02:48:10;102314.88;;;7.86;89.06
51297;BME280;37380;45.186;9.792;2023-12-28T02:50:38;102304.69;;;7.83;88.66
51297;BME280;37380;45.186;9.792;2023-12-28T02:53:05;102298.38;;;7.82;89.55
51297;BME280;37380;45.186;9.792;2023-12-28T02:55:32;102301.25;;;7.79;89.32
51297;BME280;37380;45.186;9.792;2023-12-28T02:57:59;102309.91;;;7.81;89.59
51297;BME280;37380;45.186;9.792;2023-12-28T03:00:28;102309.78;;;7.84;89.54
51297;BME280;37380;45.186;9.792;2023-12-28T03:02:55;102287.59;;;7.84;89.03
51297;BME280;37380;45.186;9.792;2023-12-28T03:05:22;102290.72;;;7.86;89.54
51297;BME280;37380;45.186;9.792;2023-12-28T03:07:50;102301.59;;;7.81;89.33
51297;BME280;37380;45.186;9.792;2023-12-28T03:10:18;102291.81;;;7.89;89.13
51297;BME280;37380;45.186;9.792;2023-12-28T03:12:45;102283.50;;;7.89;88.71
51297;BME280;37380;45.186;9.792;2023-12-28T03:15:12;102282.16;;;7.93;88.62
51297;BME280;37380;45.186;9.792;2023-12-28T03:17:40;102279.28;;;7.97;88.53
51297;BME280;37380;45.186;9.792;2023-12-28T03:20:08;102278.50;;;7.96;88.53
51297;BME280;37380;45.186;9.792;2023-12-28T03:22:37;102270.94;;;7.97;87.73
51297;BME280;37380;45.186;9.792;2023-12-28T03:25:04;102270.81;;;8.00;89.04
51297;BME280;37380;45.186;9.792;2023-12-28T03:27:32;102273.41;;;7.95;88.52
51297;BME280;37380;45.186;9.792;2023-12-28T03:29:59;102284.16;;;7.93;88.72
51297;BME280;37380;45.186;9.792;2023-12-28T03:32:26;102277.84;;;7.92;89.08
51297;BME280;37380;45.186;9.792;2023-12-28T03:34:53;102285.38;;;7.92;88.61
51297;BME280;37380;45.186;9.792;2023-12-28T03:37:20;102276.19;;;7.95;88.59
51297;BME280;37380;45.186;9.792;2023-12-28T03:39:47;102277.06;;;7.92;88.33
51297;BME280;37380;45.186;9.792;2023-12-28T03:42:14;102271.50;;;8.04;88.58
51297;BME280;37380;45.186;9.792;2023-12-28T03:44:41;102273.97;;;7.90;88.72
51297;BME280;37380;45.186;9.792;2023-12-28T03:47:08;102273.63;;;7.88;88.93
51297;BME280;37380;45.186;9.792;2023-12-28T03:49:35;102262.53;;;7.88;89.03
51297;BME280;37380;45.186;9.792;2023-12-28T03:52:03;102269.31;;;7.87;88.84
51297;BME280;37380;45.186;9.792;2023-12-28T03:54:30;102265.66;;;7.90;88.84
51297;BME280;37380;45.186;9.792;2023-12-28T03:56:57;102275.16;;;7.89;88.59
51297;BME280;37380;45.186;9.792;2023-12-28T03:59:24;102264.97;;;7.86;88.37
51297;BME280;37380;45.186;9.792;2023-12-28T04:01:53;102259.31;;;7.89;89.04
51297;BME280;37380;45.186;9.792;2023-12-28T04:04:20;102261.22;;;7.80;88.95
51297;BME280;37380;45.186;9.792;2023-12-28T04:06:48;102261.53;;;7.82;88.77
51297;BME280;37380;45.186;9.792;2023-12-28T04:09:15;102250.00;;;7.83;89.39
51297;BME280;37380;45.186;9.792;2023-12-28T04:11:46;102248.09;;;7.93;89.27
51297;BME280;37380;45.186;9.792;2023-12-28T04:14:13;102245.91;;;7.88;88.56
51297;BME280;37380;45.186;9.792;2023-12-28T04:16:40;102252.00;;;7.83;88.70
51297;BME280;37380;45.186;9.792;2023-12-28T04:19:07;102249.66;;;7.94;88.78
51297;BME280;37380;45.186;9.792;2023-12-28T04:21:34;102243.78;;;7.79;88.45
51297;BME280;37380;45.186;9.792;2023-12-28T04:24:03;102254.00;;;7.95;88.30
51297;BME280;37380;45.186;9.792;2023-12-28T04:26:30;102253.13;;;7.85;88.26
51297;BME280;37380;45.186;9.792;2023-12-28T04:28:57;102254.06;;;8.04;88.43
51297;BME280;37380;45.186;9.792;2023-12-28T04:31:24;102260.75;;;7.94;88.44
51297;BME280;37380;45.186;9.792;2023-12-28T04:33:52;102266.06;;;7.88;88.74
51297;BME280;37380;45.186;9.792;2023-12-28T04:36:19;102260.19;;;7.86;88.83
51297;BME280;37380;45.186;9.792;2023-12-28T04:38:47;102268.97;;;7.85;88.81
51297;BME280;37380;45.186;9.792;2023-12-28T04:41:14;102272.53;;;7.85;88.73
51297;BME280;37380;45.186;9.792;2023-12-28T04:43:41;102281.19;;;7.87;88.86
51297;BME280;37380;45.186;9.792;2023-12-28T04:46:09;102266.63;;;7.83;88.95
51297;BME280;37380;45.186;9.792;2023-12-28T04:48:36;102265.44;;;7.72;89.13
51297;BME280;37380;45.186;9.792;2023-12-28T04:51:04;102276.88;;;7.74;90.11
51297;BME280;37380;45.186;9.792;2023-12-28T04:53:31;102270.00;;;7.78;89.81
51297;BME280;37380;45.186;9.792;2023-12-28T04:55:59;102277.28;;;7.85;89.48
51297;BME280;37380;45.186;9.792;2023-12-28T04:58:26;102281.19;;;7.87;88.91
51297;BME280;37380;45.186;9.792;2023-12-28T05:00:53;102284.72;;;7.88;89.12
51297;BME280;37380;45.186;9.792;2023-12-28T05:03:20;102287.28;;;7.82;88.72
51297;BME280;37380;45.186;9.792;2023-12-28T05:05:48;102288.25;;;8.01;88.50
51297;BME280;37380;45.186;9.792;2023-12-28T05:08:15;102288.13;;;8.04;87.68
51297;BME280;37380;45.186;9.792;2023-12-28T05:10:42;102294.91;;;8.03;88.22
51297;BME280;37380;45.186;9.792;2023-12-28T05:13:10;102296.88;;;8.03;88.09
51297;BME280;37380;45.186;9.792;2023-12-28T05:15:38;102292.34;;;8.09;88.30
51297;BME280;37380;45.186;9.792;2023-12-28T05:18:05;102293.78;;;8.01;88.31
51297;BME280;37380;45.186;9.792;2023-12-28T05:20:34;102286.56;;;8.03;88.10
51297;BME280;37380;45.186;9.792;2023-12-28T05:23:01;102293.47;;;7.99;88.36
51297;BME280;37380;45.186;9.792;2023-12-28T05:25:28;102287.44;;;8.13;87.31
51297;BME280;37380;45.186;9.792;2023-12-28T05:27:55;102285.47;;;8.01;87.65
51297;BME280;37380;45.186;9.792;2023-12-28T05:30:23;102286.56;;;8.03;87.97
51297;BME280;37380;45.186;9.792;2023-12-28T05:32:50;102283.16;;;7.87;89.11
51297;BME280;37380;45.186;9.792;2023-12-28T05:35:17;102282.19;;;7.81;89.24
51297;BME280;37380;45.186;9.792;2023-12-28T05:37:44;102285.84;;;7.78;89.80
51297;BME280;37380;45.186;9.792;2023-12-28T05:40:11;102282.28;;;7.77;89.89
51297;BME280;37380;45.186;9.792;2023-12-28T05:42:38;102277.97;;;7.76;89.44
51297;BME280;37380;45.186;9.792;2023-12-28T05:45:06;102286.72;;;7.75;89.65
51297;BME280;37380;45.186;9.792;2023-12-28T05:47:33;102298.38;;;7.82;89.73
51297;BME280;37380;45.186;9.792;2023-12-28T05:50:00;102292.69;;;7.86;89.30
51297;BME280;37380;45.186;9.792;2023-12-28T05:52:30;102292.81;;;7.82;89.22
51297;BME280;37380;45.186;9.792;2023-12-28T05:54:57;102290.75;;;7.74;90.24
51297;BME280;37380;45.186;9.792;2023-12-28T05:57:24;102294.94;;;7.78;90.51
51297;BME280;37380;45.186;9.792;2023-12-28T05:59:53;102298.47;;;7.79;89.80
51297;BME280;37380;45.186;9.792;2023-12-28T06:02:20;102304.03;;;7.79;90.32
51297;BME280;37380;45.186;9.792;2023-12-28T06:04:47;102302.34;;;7.81;89.56
51297;BME280;37380;45.186;9.792;2023-12-28T06:07:15;102304.69;;;7.83;89.28
51297;BME280;37380;45.186;9.792;2023-12-28T06:09:42;102299.59;;;7.81;89.47
51297;BME280;37380;45.186;9.792;2023-12-28T06:12:09;102296.72;;;7.85;90.03
51297;BME280;37380;45.186;9.792;2023-12-28T06:14:36;102279.19;;;7.88;89.54
51297;BME280;37380;45.186;9.792;2023-12-28T06:17:04;102283.50;;;7.89;89.71
51297;BME280;37380;45.186;9.792;2023-12-28T06:19:31;102298.69;;;7.84;89.79
51297;BME280;37380;45.186;9.792;2023-12-28T06:21:58;102304.25;;;7.84;89.26
51297;BME280;37380;45.186;9.792;2023-12-28T06:24:25;102297.50;;;7.85;89.53
51297;BME280;37380;45.186;9.792;2023-12-28T06:26:52;102294.25;;;7.87;89.73
51297;BME280;37380;45.186;9.792;2023-12-28T06:29:19;102292.69;;;7.86;89.54
51297;BME280;37380;45.186;9.792;2023-12-28T06:31:46;102303.69;;;7.89;89.91
51297;BME280;37380;45.186;9.792;2023-12-28T06:34:13;102308.22;;;7.96;89.04
51297;BME280;37380;45.186;9.792;2023-12-28T06:36:41;102305.91;;;7.94;89.37
51297;BME280;37380;45.186;9.792;2023-12-28T06:39:10;102312.97;;;7.95;88.83
51297;BME280;37380;45.186;9.792;2023-12-28T06:41:37;102303.56;;;7.93;89.49
51297;BME280;37380;45.186;9.792;2023-12-28T06:44:04;102304.00;;;7.91;89.17
51297;BME280;37380;45.186;9.792;2023-12-28T06:46:31;102308.34;;;7.92;89.07
51297;BME280;37380;45.186;9.792;2023-12-28T06:48:58;102305.34;;;7.87;90.06
51297;BME280;37380;45.186;9.792;2023-12-28T06:51:26;102306.56;;;7.86;89.72
51297;BME280;37380;45.186;9.792;2023-12-28T06:53:53;102311.78;;;7.84;89.92
51297;BME280;37380;45.186;9.792;2023-12-28T06:56:20;102304.16;;;7.88;90.03
51297;BME280;37380;45.186;9.792;2023-12-28T06:58:47;102316.13;;;7.85;90.35
51297;BME280;37380;45.186;9.792;2023-12-28T07:01:14;102320.34;;;7.89;89.98
51297;BME280;37380;45.186;9.792;2023-12-28T07:03:41;102321.22;;;7.86;90.25
51297;BME280;37380;45.186;9.792;2023-12-28T07:06:09;102322.00;;;7.87;90.14
51297;BME280;37380;45.186;9.792;2023-12-28T07:08:36;102319.22;;;7.87;89.84
51297;BME280;37380;45.186;9.792;2023-12-28T07:11:03;102315.56;;;7.90;89.87
51297;BME280;37380;45.186;9.792;2023-12-28T07:13:32;102324.66;;;7.90;90.19
51297;BME280;37380;45.186;9.792;2023-12-28T07:15:59;102326.63;;;8.02;89.65
51297;BME280;37380;45.186;9.792;2023-12-28T07:18:27;102333.75;;;7.91;89.36
51297;BME280;37380;45.186;9.792;2023-12-28T07:20:56;102324.88;;;7.96;90.03
51297;BME280;37380;45.186;9.792;2023-12-28T07:23:23;102333.63;;;7.94;89.91
51297;BME280;37380;45.186;9.792;2023-12-28T07:25:50;102337.63;;;7.93;89.61
51297;BME280;37380;45.186;9.792;2023-12-28T07:28:17;102337.63;;;7.93;89.88
51297;BME280;37380;45.186;9.792;2023-12-28T07:30:44;102337.63;;;7.93;90.09
51297;BME280;37380;45.186;9.792;2023-12-28T07:33:12;102331.97;;;7.97;89.62
51297;BME280;37380;45.186;9.792;2023-12-28T07:35:41;102333.19;;;7.96;89.88
51297;BME280;37380;45.186;9.792;2023-12-28T07:38:08;102331.75;;;8.04;90.59
51297;BME280;37380;45.186;9.792;2023-12-28T07:40:34;102329.63;;;8.08;89.44
51297;BME280;37380;45.186;9.792;2023-12-28T07:43:02;102333.41;;;8.01;89.49
51297;BME280;37380;45.186;9.792;2023-12-28T07:45:29;102330.63;;;8.14;89.36
51297;BME280;37380;45.186;9.792;2023-12-28T07:47:56;102340.94;;;8.13;89.77
51297;BME280;37380;45.186;9.792;2023-12-28T07:50:24;102334.94;;;8.15;88.97
51297;BME280;37380;45.186;9.792;2023-12-28T07:52:51;102337.38;;;8.13;89.06
51297;BME280;37380;45.186;9.792;2023-12-28T07:55:18;102343.03;;;8.22;89.42
51297;BME280;37380;45.186;9.792;2023-12-28T07:57:46;102338.50;;;8.28;89.80
51297;BME280;37380;45.186;9.792;2023-12-28T08:00:13;102341.81;;;8.36;89.18
51297;BME280;37380;45.186;9.792;2023-12-28T08:02:41;102335.50;;;8.35;88.65
51297;BME280;37380;45.186;9.792;2023-12-28T08:05:08;102339.38;;;8.38;88.54
51297;BME280;37380;45.186;9.792;2023-12-28T08:07:35;102349.31;;;8.48;88.64
51297;BME280;37380;45.186;9.792;2023-12-28T08:10:02;102348.66;;;8.44;88.27
51297;BME280;37380;45.186;9.792;2023-12-28T08:12:30;102348.75;;;8.53;88.61
51297;BME280;37380;45.186;9.792;2023-12-28T08:14:59;102346.75;;;8.53;87.44
51297;BME280;37380;45.186;9.792;2023-12-28T08:17:27;102349.59;;;8.62;88.43
51297;BME280;37380;45.186;9.792;2023-12-28T08:19:54;102348.59;;;8.69;88.43
51297;BME280;37380;45.186;9.792;2023-12-28T08:22:22;102356.53;;;8.79;88.44
51297;BME280;37380;45.186;9.792;2023-12-28T08:24:49;102357.53;;;8.86;88.18
51297;BME280;37380;45.186;9.792;2023-12-28T08:27:16;102351.19;;;8.85;87.49
51297;BME280;37380;45.186;9.792;2023-12-28T08:29:43;102355.81;;;8.66;87.38
51297;BME280;37380;45.186;9.792;2023-12-28T08:32:11;102363.97;;;8.48;88.76
51297;BME280;37380;45.186;9.792;2023-12-28T08:34:38;102362.53;;;8.56;89.23
51297;BME280;37380;45.186;9.792;2023-12-28T08:37:07;102372.31;;;8.48;88.59
51297;BME280;37380;45.186;9.792;2023-12-28T08:39:35;102369.22;;;8.34;88.92
51297;BME280;37380;45.186;9.792;2023-12-28T08:42:02;102376.91;;;8.30;89.80
51297;BME280;37380;45.186;9.792;2023-12-28T08:44:30;102376.91;;;8.30;90.11
51297;BME280;37380;45.186;9.792;2023-12-28T08:46:57;102380.13;;;8.28;89.95
51297;BME280;37380;45.186;9.792;2023-12-28T08:49:23;102370.56;;;8.29;89.27
51297;BME280;37380;45.186;9.792;2023-12-28T08:51:51;102367.38;;;8.31;89.69
51297;BME280;37380;45.186;9.792;2023-12-28T08:54:18;102371.00;;;8.40;89.42
51297;BME280;37380;45.186;9.792;2023-12-28T08:56:45;102372.13;;;8.43;89.60
51297;BME280;37380;45.186;9.792;2023-12-28T08:59:18;102378.53;;;8.52;89.20
51297;BME280;37380;45.186;9.792;2023-12-28T09:01:45;102375.84;;;8.61;88.84
51297;BME280;37380;45.186;9.792;2023-12-28T09:04:13;102379.25;;;8.65;88.50
51297;BME280;37380;45.186;9.792;2023-12-28T09:06:40;102375.72;;;8.87;88.06
51297;BME280;37380;45.186;9.792;2023-12-28T09:09:08;102382.84;;;8.88;87.37
51297;BME280;37380;45.186;9.792;2023-12-28T09:11:36;102379.75;;;8.86;87.28
51297;BME280;37380;45.186;9.792;2023-12-28T09:14:03;102386.41;;;8.88;87.31
51297;BME280;37380;45.186;9.792;2023-12-28T09:16:29;102378.94;;;9.19;86.58
51297;BME280;37380;45.186;9.792;2023-12-28T09:18:57;102381.50;;;9.14;86.41
51297;BME280;37380;45.186;9.792;2023-12-28T09:21:24;102380.41;;;9.11;85.79
51297;BME280;37380;45.186;9.792;2023-12-28T09:23:53;102389.53;;;9.12;86.01
51297;BME280;37380;45.186;9.792;2023-12-28T09:26:20;102392.88;;;9.28;85.81
51297;BME280;37380;45.186;9.792;2023-12-28T09:28:47;102398.25;;;9.23;85.49
51297;BME280;37380;45.186;9.792;2023-12-28T09:31:14;102398.03;;;9.17;85.96
51297;BME280;37380;45.186;9.792;2023-12-28T09:33:43;102401.75;;;9.36;86.06
51297;BME280;37380;45.186;9.792;2023-12-28T09:36:10;102411.41;;;9.53;85.09
51297;BME280;37380;45.186;9.792;2023-12-28T09:38:40;102404.56;;;9.67;84.23
51297;BME280;37380;45.186;9.792;2023-12-28T09:41:11;102409.25;;;9.48;85.09
51297;BME280;37380;45.186;9.792;2023-12-28T09:46:15;102418.22;;;10.13;83.15
51297;BME280;37380;45.186;9.792;2023-12-28T09:48:43;102414.06;;;9.87;83.88
51297;BME280;37380;45.186;9.792;2023-12-28T09:51:11;102402.88;;;9.69;84.59
51297;BME280;37380;45.186;9.792;2023-12-28T09:53:42;102409.97;;;9.70;84.35
51297;BME280;37380;45.186;9.792;2023-12-28T09:56:12;102405.50;;;9.73;84.24
51297;BME280;37380;45.186;9.792;2023-12-28T09:58:40;102413.22;;;9.69;84.42
51297;BME280;37380;45.186;9.792;2023-12-28T10:01:09;102410.50;;;9.56;85.21
51297;BME280;37380;45.186;9.792;2023-12-28T10:03:36;102411.13;;;9.60;85.05
51297;BME280;37380;45.186;9.792;2023-12-28T10:06:04;102407.53;;;9.50;85.14
51297;BME280;37380;45.186;9.792;2023-12-28T10:08:31;102402.63;;;9.55;84.88
51297;BME280;37380;45.186;9.792;2023-12-28T10:10:58;102387.19;;;9.63;84.20
51297;BME280;37380;45.186;9.792;2023-12-28T10:13:27;102370.84;;;9.65;83.55
51297;BME280;37380;45.186;9.792;2023-12-28T10:15:58;102378.16;;;9.71;83.84
51297;BME280;37380;45.186;9.792;2023-12-28T10:18:26;102372.28;;;9.69;83.04
51297;BME280;37380;45.186;9.792;2023-12-28T10:20:54;102379.66;;;9.63;83.59
51297;BME280;37380;45.186;9.792;2023-12-28T10:23:21;102377.56;;;9.76;83.73
51297;BME280;37380;45.186;9.792;2023-12-28T10:25:50;102376.97;;;9.81;83.38
51297;BME280;37380;45.186;9.792;2023-12-28T10:28:19;102380.91;;;10.02;82.94
51297;BME280;37380;45.186;9.792;2023-12-28T10:30:46;102372.16;;;10.12;82.83
51297;BME280;37380;45.186;9.792;2023-12-28T10:33:14;102364.56;;;10.13;82.06
51297;BME280;37380;45.186;9.792;2023-12-28T10:35:44;102361.25;;;10.05;82.58
51297;BME280;37380;45.186;9.792;2023-12-28T10:38:15;102364.03;;;9.96;83.01
51297;BME280;37380;45.186;9.792;2023-12-28T10:40:44;102361.97;;;10.19;82.97
51297;BME280;37380;45.186;9.792;2023-12-28T10:43:15;102360.56;;;10.23;82.28
51297;BME280;37380;45.186;9.792;2023-12-28T10:45:47;102352.41;;;10.29;82.69
51297;BME280;37380;45.186;9.792;2023-12-28T10:48:21;102350.22;;;10.33;81.95
51297;BME280;37380;45.186;9.792;2023-12-28T10:50:52;102341.56;;;10.31;82.40
51297;BME280;37380;45.186;9.792;2023-12-28T10:53:37;102347.56;;;10.20;81.81
51297;BME280;37380;45.186;9.792;2023-12-28T10:56:23;102338.38;;;10.01;82.34
51297;BME280;37380;45.186;9.792;2023-12-28T10:59:10;102337.59;;;10.01;82.77
51297;BME280;37380;45.186;9.792;2023-12-28T11:01:40;102333.31;;;10.09;82.00
51297;BME280;37380;45.186;9.792;2023-12-28T11:04:27;102334.41;;;10.11;81.55
51297;BME280;37380;45.186;9.792;2023-12-28T11:06:58;102331.28;;;10.09;81.48
51297;BME280;37380;45.186;9.792;2023-12-28T11:09:30;102327.78;;;10.18;81.38
51297;BME280;37380;45.186;9.792;2023-12-28T11:11:58;102327.78;;;10.18;81.76
51297;BME280;37380;45.186;9.792;2023-12-28T11:14:28;102331.34;;;10.28;81.93
51297;BME280;37380;45.186;9.792;2023-12-28T11:16:56;102324.88;;;10.31;81.51
51297;BME280;37380;45.186;9.792;2023-12-28T11:19:26;102312.38;;;10.62;79.65
51297;BME280;37380;45.186;9.792;2023-12-28T11:21:55;102318.06;;;10.32;80.29
51297;BME280;37380;45.186;9.792;2023-12-28T11:24:23;102306.47;;;10.24;79.95
51297;BME280;37380;45.186;9.792;2023-12-28T11:26:54;102309.53;;;10.17;80.35
51297;BME280;37380;45.186;9.792;2023-12-28T11:29:22;102305.66;;;10.14;80.96
51297;BME280;37380;45.186;9.792;2023-12-28T11:31:58;102296.72;;;10.20;80.87
51297;BME280;37380;45.186;9.792;2023-12-28T11:34:26;102295.81;;;10.41;80.73
51297;BME280;37380;45.186;9.792;2023-12-28T11:36:56;102291.94;;;10.29;79.22
51297;BME280;37380;45.186;9.792;2023-12-28T11:39:31;102287.09;;;10.21;79.53
51297;BME280;37380;45.186;9.792;2023-12-28T11:42:03;102280.63;;;10.42;79.77
51297;BME280;37380;45.186;9.792;2023-12-28T11:44:32;102271.97;;;10.58;79.51
51297;BME280;37380;45.186;9.792;2023-12-28T11:47:20;102268.22;;;10.70;81.02
51297;BME280;37380;45.186;9.792;2023-12-28T11:49:48;102269.47;;;10.69;79.25
51297;BME280;37380;45.186;9.792;2023-12-28T11:52:31;102269.22;;;11.27;78.42
51297;BME280;37380;45.186;9.792;2023-12-28T11:54:59;102267.91;;;11.46;77.98
51297;BME280;37380;45.186;9.792;2023-12-28T11:57:27;102263.63;;;11.69;77.17
51297;BME280;37380;45.186;9.792;2023-12-28T11:59:59;102268.84;;;11.76;74.72
51297;BME280;37380;45.186;9.792;2023-12-28T12:02:27;102259.66;;;12.08;75.10
51297;BME280;37380;45.186;9.792;2023-12-28T12:04:57;102256.56;;;11.49;75.50
51297;BME280;37380;45.186;9.792;2023-12-28T12:07:24;102258.56;;;11.49;76.85
51297;BME280;37380;45.186;9.792;2023-12-28T12:09:56;102245.94;;;11.72;76.15
51297;BME280;37380;45.186;9.792;2023-12-28T12:12:25;102233.66;;;11.78;76.08
51297;BME280;37380;45.186;9.792;2023-12-28T12:14:52;102229.09;;;11.24;76.42
51297;BME280;37380;45.186;9.792;2023-12-28T12:17:19;102231.13;;;11.15;76.16
51297;BME280;37380;45.186;9.792;2023-12-28T12:19:47;102228.22;;;11.09;76.14
51297;BME280;37380;45.186;9.792;2023-12-28T12:22:17;102228.34;;;11.15;76.50
51297;BME280;37380;45.186;9.792;2023-12-28T12:24:46;102225.91;;;11.08;76.25
51297;BME280;37380;45.186;9.792;2023-12-28T12:27:15;102229.63;;;11.05;76.77
51297;BME280;37380;45.186;9.792;2023-12-28T12:29:41;102219.75;;;11.27;75.70
51297;BME280;37380;45.186;9.792;2023-12-28T12:32:09;102220.44;;;11.13;75.76
51297;BME280;37380;45.186;9.792;2023-12-28T12:34:38;102217.22;;;11.06;75.08
51297;BME280;37380;45.186;9.792;2023-12-28T12:37:06;102218.44;;;11.14;75.59
51297;BME280;37380;45.186;9.792;2023-12-28T12:39:33;102212.50;;;11.53;76.04
51297;BME280;37380;45.186;9.792;2023-12-28T12:42:01;102219.31;;;11.29;75.19
51297;BME280;37380;45.186;9.792;2023-12-28T12:44:29;102212.72;;;11.17;75.44
51297;BME280;37380;45.186;9.792;2023-12-28T12:46:57;102206.22;;;11.11;75.63
51297;BME280;37380;45.186;9.792;2023-12-28T12:49:28;102207.38;;;11.28;73.88
51297;BME280;37380;45.186;9.792;2023-12-28T12:51:55;102203.69;;;11.22;74.13
51297;BME280;37380;45.186;9.792;2023-12-28T12:54:22;102197.09;;;11.43;74.37
51297;BME280;37380;45.186;9.792;2023-12-28T12:56:50;102204.44;;;11.23;74.90
51297;BME280;37380;45.186;9.792;2023-12-28T12:59:17;102193.88;;;11.36;75.48
51297;BME280;37380;45.186;9.792;2023-12-28T13:01:45;102198.63;;;11.44;74.42
51297;BME280;37380;45.186;9.792;2023-12-28T13:04:18;102201.84;;;11.19;75.19
51297;BME280;37380;45.186;9.792;2023-12-28T13:06:46;102191.66;;;11.07;74.88
51297;BME280;37380;45.186;9.792;2023-12-28T13:09:13;102187.03;;;11.04;75.86